createdAt,value
2022-10-24T00:00:03.228Z,99.12
2022-10-24T00:01:03.212Z,99.02
2022-10-24T00:02:03.423Z,99.02
2022-10-24T00:03:02.963Z,99.12
2022-10-24T00:04:02.930Z,98.82
2022-10-24T00:05:03.496Z,98.51
2022-10-24T00:06:03.500Z,98.82
2022-10-24T00:07:02.333Z,98.71
2022-10-24T00:08:02.744Z,98.71
2022-10-24T00:09:02.361Z,98.82
2022-10-24T00:10:02.312Z,99.02
2022-10-24T00:11:02.519Z,98.92
2022-10-24T00:12:02.375Z,98.51
2022-10-24T00:13:02.326Z,98.31
2022-10-24T00:14:02.974Z,98.51
2022-10-24T00:15:02.571Z,98.51
2022-10-24T00:16:02.717Z,98.61
2022-10-24T00:17:02.704Z,98.51
2022-10-24T00:18:02.540Z,98.61
2022-10-24T00:19:03.100Z,98.51
2022-10-24T00:20:02.668Z,98.61
2022-10-24T00:21:03.071Z,98.41
2022-10-24T00:22:02.719Z,98.41
2022-10-24T00:23:03.184Z,98.71
2022-10-24T00:24:02.650Z,98.71
2022-10-24T00:25:03.119Z,98.61
2022-10-24T00:26:02.975Z,98.92
2022-10-24T00:27:03.248Z,99.02
2022-10-24T00:28:03.371Z,98.71
2022-10-24T00:29:03.103Z,98.61
2022-10-24T00:30:02.829Z,98.61
2022-10-24T00:31:03.238Z,98.41
2022-10-24T00:32:02.688Z,98.61
2022-10-24T00:33:02.875Z,98.51
2022-10-24T00:34:02.847Z,98.31
2022-10-24T00:35:02.546Z,97.80
2022-10-24T00:36:02.908Z,98.21
2022-10-24T00:37:02.759Z,98.11
2022-10-24T00:38:03.316Z,98.01
2022-10-24T00:39:02.929Z,98.21
2022-10-24T00:40:02.967Z,98.31
2022-10-24T00:41:02.956Z,98.01
2022-10-24T00:42:03.201Z,98.01
2022-10-24T00:43:02.843Z,98.31
2022-10-24T00:44:03.240Z,98.31
2022-10-24T00:45:03.074Z,98.31
2022-10-24T00:46:03.120Z,98.11
2022-10-24T00:47:03.142Z,98.11
2022-10-24T00:48:03.565Z,98.21
2022-10-24T00:49:03.530Z,98.31
2022-10-24T00:50:03.454Z,98.31
2022-10-24T00:51:03.348Z,98.31
2022-10-24T00:52:03.244Z,98.41
2022-10-24T00:53:03.704Z,98.41
2022-10-24T00:54:03.373Z,98.41
2022-10-24T00:55:03.269Z,98.51
2022-10-24T00:56:03.126Z,98.51
2022-10-24T00:57:02.888Z,98.71
2022-10-24T00:58:02.773Z,98.61
2022-10-24T00:59:02.613Z,98.71
2022-10-24T01:00:03.232Z,98.51
2022-10-24T01:01:03.318Z,98.71
2022-10-24T01:02:02.907Z,98.61
2022-10-24T01:03:02.852Z,98.92
2022-10-24T01:04:02.983Z,98.92
2022-10-24T01:05:02.983Z,98.92
2022-10-24T01:06:02.920Z,99.02
2022-10-24T01:07:02.462Z,98.92
2022-10-24T01:08:02.453Z,99.02
2022-10-24T01:09:02.607Z,99.02
2022-10-24T01:10:02.907Z,98.82
2022-10-24T01:11:02.475Z,98.82
2022-10-24T01:12:03.451Z,98.41
2022-10-24T01:13:03.224Z,98.21
2022-10-24T01:14:03.401Z,98.51
2022-10-24T01:15:03.469Z,98.51
2022-10-24T01:16:03.528Z,98.41
2022-10-24T01:17:03.120Z,98.41
2022-10-24T01:18:03.381Z,98.51
2022-10-24T01:19:03.504Z,98.51
2022-10-24T01:20:03.104Z,98.11
2022-10-24T01:21:02.985Z,98.11
2022-10-24T01:22:02.450Z,98.21
2022-10-24T01:23:02.928Z,98.76
2022-10-24T01:24:02.826Z,98.96
2022-10-24T01:25:02.820Z,99.07
2022-10-24T01:26:02.557Z,98.71
2022-10-24T01:27:03.148Z,98.61
2022-10-24T01:28:03.079Z,98.51
2022-10-24T01:29:03.044Z,98.01
2022-10-24T01:30:03.183Z,98.21
2022-10-24T01:31:03.075Z,98.41
2022-10-24T01:32:02.625Z,98.41
2022-10-24T01:33:02.508Z,98.25
2022-10-24T01:34:02.852Z,98.66
2022-10-24T01:35:02.337Z,98.56
2022-10-24T01:36:02.911Z,98.56
2022-10-24T01:37:03.122Z,98.01
2022-10-24T01:38:02.856Z,98.11
2022-10-24T01:39:02.888Z,98.36
2022-10-24T01:40:02.475Z,98.46
2022-10-24T01:41:02.769Z,98.56
2022-10-24T01:42:03.416Z,98.46
2022-10-24T01:43:03.406Z,97.80
2022-10-24T01:44:03.594Z,97.96
2022-10-24T01:45:03.284Z,98.05
2022-10-24T01:46:03.392Z,98.16
2022-10-24T01:47:02.773Z,98.05
2022-10-24T01:48:03.167Z,98.05
2022-10-24T01:49:02.641Z,98.25
2022-10-24T01:50:03.295Z,98.25
2022-10-24T01:51:02.640Z,98.46
2022-10-24T01:52:03.044Z,98.25
2022-10-24T01:53:02.844Z,98.46
2022-10-24T01:54:03.166Z,98.46
2022-10-24T01:55:03.483Z,98.76
2022-10-24T01:56:02.808Z,98.56
2022-10-24T01:57:03.599Z,98.76
2022-10-24T01:58:03.070Z,98.56
2022-10-24T01:59:03.213Z,98.66
2022-10-24T02:00:03.073Z,98.71
2022-10-24T02:01:03.443Z,98.50
2022-10-24T02:02:03.115Z,98.71
2022-10-24T02:03:02.651Z,98.56
2022-10-24T02:04:03.026Z,98.36
2022-10-24T02:05:02.991Z,98.25
2022-10-24T02:06:02.732Z,97.96
2022-10-24T02:07:02.367Z,98.16
2022-10-24T02:08:02.798Z,97.80
2022-10-24T02:09:02.270Z,98.40
2022-10-24T02:10:02.762Z,98.61
2022-10-24T02:11:02.512Z,98.50
2022-10-24T02:12:02.999Z,98.20
2022-10-24T02:13:02.730Z,98.61
2022-10-24T02:14:02.769Z,98.71
2022-10-24T02:15:02.725Z,98.81
2022-10-24T02:16:03.235Z,98.71
2022-10-24T02:17:02.710Z,98.71
2022-10-24T02:18:02.568Z,98.81
2022-10-24T02:19:02.455Z,98.71
2022-10-24T02:20:02.908Z,98.81
2022-10-24T02:21:02.646Z,98.81
2022-10-24T02:22:02.764Z,98.81
2022-10-24T02:23:02.950Z,98.91
2022-10-24T02:24:02.827Z,98.91
2022-10-24T02:25:02.645Z,98.91
2022-10-24T02:26:03.130Z,98.81
2022-10-24T02:27:03.479Z,98.81
2022-10-24T02:28:03.405Z,99.01
2022-10-24T02:29:03.185Z,98.91
2022-10-24T02:30:03.443Z,99.01
2022-10-24T02:31:03.142Z,98.91
2022-10-24T02:32:02.516Z,98.91
2022-10-24T02:33:02.264Z,99.11
2022-10-24T02:34:02.902Z,99.11
2022-10-24T02:35:02.335Z,99.21
2022-10-24T02:36:02.722Z,99.01
2022-10-24T02:37:03.242Z,99.21
2022-10-24T02:38:03.319Z,99.21
2022-10-24T02:39:03.233Z,99.32
2022-10-24T02:40:02.637Z,99.52
2022-10-24T02:41:03.076Z,99.32
2022-10-24T02:42:02.613Z,99.11
2022-10-24T02:43:02.299Z,99.52
2022-10-24T02:44:02.476Z,99.32
2022-10-24T02:45:02.403Z,98.86
2022-10-24T02:46:02.559Z,98.76
2022-10-24T02:47:02.360Z,98.46
2022-10-24T02:48:02.286Z,98.66
2022-10-24T02:49:02.597Z,98.66
2022-10-24T02:50:02.478Z,98.25
2022-10-24T02:51:02.302Z,98.25
2022-10-24T02:52:02.234Z,98.36
2022-10-24T02:53:02.591Z,98.16
2022-10-24T02:54:02.724Z,97.96
2022-10-24T02:55:02.841Z,98.71
2022-10-24T02:56:02.526Z,98.46
2022-10-24T02:57:03.018Z,98.46
2022-10-24T02:58:02.630Z,98.05
2022-10-24T02:59:02.807Z,98.46
2022-10-24T03:00:02.666Z,98.81
2022-10-24T03:01:02.560Z,99.01
2022-10-24T03:02:01.833Z,98.86
2022-10-24T03:03:01.809Z,98.76
2022-10-24T03:04:01.941Z,98.36
2022-10-24T03:05:02.135Z,98.56
2022-10-24T03:06:02.024Z,98.66
2022-10-24T03:07:01.991Z,98.46
2022-10-24T03:08:02.461Z,98.25
2022-10-24T03:09:02.102Z,98.46
2022-10-24T03:10:02.243Z,98.05
2022-10-24T03:11:02.111Z,98.36
2022-10-24T03:12:02.249Z,98.36
2022-10-24T03:13:02.627Z,98.36
2022-10-24T03:14:01.990Z,97.85
2022-10-24T03:15:02.409Z,97.75
2022-10-24T03:16:02.005Z,97.85
2022-10-24T03:17:02.167Z,97.55
2022-10-24T03:18:02.175Z,97.34
2022-10-24T03:19:01.966Z,97.10
2022-10-24T03:20:02.024Z,96.89
2022-10-24T03:21:01.619Z,96.80
2022-10-24T03:22:01.729Z,96.69
2022-10-24T03:23:01.943Z,96.80
2022-10-24T03:24:02.156Z,96.69
2022-10-24T03:25:02.117Z,96.59
2022-10-24T03:26:01.777Z,96.59
2022-10-24T03:27:02.063Z,96.39
2022-10-24T03:28:02.723Z,96.59
2022-10-24T03:29:02.534Z,96.59
2022-10-24T03:30:02.360Z,96.74
2022-10-24T03:31:02.322Z,97.05
2022-10-24T03:32:02.117Z,97.25
2022-10-24T03:33:01.756Z,96.94
2022-10-24T03:34:02.060Z,96.94
2022-10-24T03:35:02.244Z,96.74
2022-10-24T03:36:01.898Z,97.05
2022-10-24T03:37:02.071Z,97.14
2022-10-24T03:38:02.332Z,96.94
2022-10-24T03:39:01.925Z,96.84
2022-10-24T03:40:02.010Z,96.49
2022-10-24T03:41:02.177Z,96.19
2022-10-24T03:42:02.330Z,95.89
2022-10-24T03:43:02.506Z,95.89
2022-10-24T03:44:01.974Z,96.09
2022-10-24T03:45:02.373Z,96.09
2022-10-24T03:46:02.000Z,95.48
2022-10-24T03:47:01.952Z,94.87
2022-10-24T03:48:02.525Z,95.53
2022-10-24T03:50:02.003Z,95.53
2022-10-24T03:51:02.159Z,95.63
2022-10-24T03:52:02.211Z,95.53
2022-10-24T03:53:02.295Z,95.83
2022-10-24T03:54:02.744Z,96.03
2022-10-24T03:55:02.719Z,95.83
2022-10-24T03:56:02.565Z,95.83
2022-10-24T03:57:02.440Z,96.03
2022-10-24T03:58:02.395Z,95.83
2022-10-24T03:59:02.414Z,95.63
2022-10-24T04:00:02.704Z,95.02
2022-10-24T04:01:02.852Z,94.82
2022-10-24T04:02:03.534Z,94.72
2022-10-24T04:03:03.584Z,94.21
2022-10-24T04:04:03.424Z,94.47
2022-10-24T04:05:03.751Z,94.57
2022-10-24T04:06:03.524Z,94.51
2022-10-24T04:07:03.506Z,94.42
2022-10-24T04:08:03.610Z,94.01
2022-10-24T04:09:03.561Z,94.11
2022-10-24T04:10:03.177Z,94.11
2022-10-24T04:11:03.469Z,94.31
2022-10-24T04:12:03.333Z,94.51
2022-10-24T04:13:03.739Z,94.11
2022-10-24T04:15:04.966Z,94.21
2022-10-24T04:16:03.255Z,94.11
2022-10-24T04:17:03.323Z,94.42
2022-10-24T04:18:03.550Z,94.21
2022-10-24T04:19:04.143Z,94.51
2022-10-24T04:20:03.692Z,94.31
2022-10-24T04:21:03.549Z,94.31
2022-10-24T04:22:03.506Z,94.51
2022-10-24T04:23:04.615Z,94.62
2022-10-24T04:24:03.654Z,94.31
2022-10-24T04:25:03.494Z,94.31
2022-10-24T04:26:03.861Z,94.01
2022-10-24T04:27:02.773Z,93.91
2022-10-24T04:28:02.940Z,93.81
2022-10-24T04:29:03.203Z,93.51
2022-10-24T04:30:02.857Z,93.00
2022-10-24T04:31:03.149Z,93.20
2022-10-24T04:32:03.247Z,93.51
2022-10-24T04:33:03.154Z,93.81
2022-10-24T04:34:03.347Z,93.51
2022-10-24T04:35:03.168Z,93.30
2022-10-24T04:36:02.971Z,93.30
2022-10-24T04:37:03.917Z,93.40
2022-10-24T04:38:03.704Z,93.40
2022-10-24T04:39:03.841Z,93.60
2022-10-24T04:40:03.698Z,93.71
2022-10-24T04:41:06.240Z,93.51
2022-10-24T04:42:03.285Z,93.30
2022-10-24T04:43:02.781Z,93.60
2022-10-24T04:44:03.353Z,93.51
2022-10-24T04:45:03.043Z,93.20
2022-10-24T04:46:03.349Z,93.10
2022-10-24T04:47:03.487Z,93.20
2022-10-24T04:48:03.620Z,93.10
2022-10-24T04:49:03.473Z,92.90
2022-10-24T04:50:03.720Z,92.40
2022-10-24T04:51:03.751Z,91.99
2022-10-24T04:52:03.443Z,92.19
2022-10-24T04:53:03.406Z,92.09
2022-10-24T04:54:03.724Z,91.89
2022-10-24T04:55:03.401Z,91.89
2022-10-24T04:56:03.383Z,92.29
2022-10-24T04:57:02.849Z,92.19
2022-10-24T04:58:03.343Z,92.09
2022-10-24T04:59:02.875Z,92.40
2022-10-24T05:00:03.413Z,92.40
2022-10-24T05:01:03.427Z,91.89
2022-10-24T05:02:02.805Z,92.40
2022-10-24T05:03:03.020Z,92.29
2022-10-24T05:05:02.905Z,92.09
2022-10-24T05:06:03.033Z,92.19
2022-10-24T05:07:02.852Z,92.19
2022-10-24T05:08:02.514Z,92.09
2022-10-24T05:09:02.865Z,91.99
2022-10-24T05:10:02.737Z,92.09
2022-10-24T05:11:02.639Z,91.69
2022-10-24T05:12:02.033Z,91.58
2022-10-24T05:13:02.595Z,92.24
2022-10-24T05:14:01.949Z,92.44
2022-10-24T05:15:02.487Z,92.64
2022-10-24T05:16:02.524Z,92.84
2022-10-24T05:17:03.259Z,93.04
2022-10-24T05:18:03.128Z,93.24
2022-10-24T05:19:03.056Z,93.04
2022-10-24T05:20:03.183Z,92.64
2022-10-24T05:21:02.628Z,92.84
2022-10-24T05:22:03.243Z,93.24
2022-10-24T05:23:02.238Z,93.15
2022-10-24T05:24:02.159Z,93.19
2022-10-24T05:25:02.405Z,93.70
2022-10-24T05:26:02.151Z,94.10
2022-10-24T05:27:02.808Z,94.30
2022-10-24T05:28:02.301Z,94.60
2022-10-24T05:29:02.777Z,94.71
2022-10-24T05:30:02.657Z,94.71
2022-10-24T05:31:02.428Z,94.40
2022-10-24T05:32:02.627Z,94.10
2022-10-24T05:33:02.571Z,93.95
2022-10-24T05:34:03.022Z,93.90
2022-10-24T05:35:02.641Z,94.00
2022-10-24T05:36:02.851Z,94.30
2022-10-24T05:37:01.833Z,94.40
2022-10-24T05:38:02.433Z,94.50
2022-10-24T05:39:01.816Z,94.91
2022-10-24T05:40:02.388Z,94.81
2022-10-24T05:41:01.894Z,95.11
2022-10-24T05:42:02.446Z,95.01
2022-10-24T05:43:01.974Z,94.81
2022-10-24T05:44:02.530Z,94.60
2022-10-24T05:45:02.386Z,94.71
2022-10-24T05:46:01.865Z,94.81
2022-10-24T05:47:02.104Z,94.20
2022-10-24T05:48:02.264Z,94.40
2022-10-24T05:49:02.538Z,94.60
2022-10-24T05:50:02.577Z,93.65
2022-10-24T05:51:01.977Z,94.15
2022-10-24T05:52:02.523Z,94.06
2022-10-24T05:53:02.395Z,94.26
2022-10-24T05:54:02.450Z,94.06
2022-10-24T05:55:07.308Z,94.06
2022-10-24T05:56:02.298Z,94.46
2022-10-24T05:57:02.715Z,94.06
2022-10-24T05:58:02.463Z,93.85
2022-10-24T05:59:02.654Z,93.85
2022-10-24T06:00:02.530Z,93.51
2022-10-24T06:01:02.787Z,93.60
2022-10-24T06:02:03.580Z,93.30
2022-10-24T06:03:03.029Z,93.00
2022-10-24T06:04:03.277Z,93.00
2022-10-24T06:05:02.898Z,93.20
2022-10-24T06:06:02.878Z,93.10
2022-10-24T06:07:03.578Z,92.90
2022-10-24T06:08:03.277Z,92.80
2022-10-24T06:09:03.320Z,91.99
2022-10-24T06:10:03.356Z,92.19
2022-10-24T06:11:03.293Z,92.60
2022-10-24T06:12:02.928Z,92.80
2022-10-24T06:13:02.718Z,92.80
2022-10-24T06:14:02.503Z,93.30
2022-10-24T06:15:02.935Z,93.30
2022-10-24T06:16:02.956Z,93.60
2022-10-24T06:17:03.618Z,93.40
2022-10-24T06:18:03.306Z,93.10
2022-10-24T06:19:03.151Z,93.20
2022-10-24T06:20:03.523Z,93.00
2022-10-24T06:21:02.994Z,92.80
2022-10-24T06:22:03.674Z,92.80
2022-10-24T06:23:03.090Z,92.40
2022-10-24T06:24:03.520Z,92.40
2022-10-24T06:25:03.359Z,92.49
2022-10-24T06:26:03.224Z,92.09
2022-10-24T06:27:03.230Z,92.40
2022-10-24T06:28:03.270Z,92.19
2022-10-24T06:29:02.787Z,91.99
2022-10-24T06:30:02.952Z,92.40
2022-10-24T06:31:02.771Z,92.60
2022-10-24T06:32:03.133Z,93.04
2022-10-24T06:33:03.382Z,92.94
2022-10-24T06:34:02.806Z,93.35
2022-10-24T06:35:03.282Z,93.10
2022-10-24T06:36:02.857Z,93.20
2022-10-24T06:37:02.981Z,93.00
2022-10-24T06:38:03.160Z,92.80
2022-10-24T06:39:03.253Z,92.69
2022-10-24T06:40:02.847Z,92.40
2022-10-24T06:41:02.836Z,92.60
2022-10-24T06:42:02.608Z,92.19
2022-10-24T06:43:02.575Z,92.49
2022-10-24T06:44:03.732Z,92.49
2022-10-24T06:45:03.134Z,92.09
2022-10-24T06:46:02.631Z,91.49
2022-10-24T06:47:03.210Z,91.89
2022-10-24T06:48:02.937Z,91.58
2022-10-24T06:49:03.148Z,91.58
2022-10-24T06:50:02.831Z,91.69
2022-10-24T06:51:02.899Z,91.44
2022-10-24T06:52:03.392Z,91.89
2022-10-24T06:53:03.333Z,92.19
2022-10-24T06:54:03.253Z,92.40
2022-10-24T06:55:02.925Z,92.29
2022-10-24T06:56:03.001Z,91.94
2022-10-24T06:57:03.333Z,91.94
2022-10-24T06:58:03.254Z,91.85
2022-10-24T06:59:03.581Z,91.54
2022-10-24T07:00:03.914Z,92.09
2022-10-24T07:01:03.750Z,91.94
2022-10-24T07:02:05.058Z,91.85
2022-10-24T07:03:02.012Z,92.05
2022-10-24T07:04:02.032Z,91.74
2022-10-24T07:05:02.018Z,91.44
2022-10-24T07:06:02.375Z,90.53
2022-10-24T07:07:02.076Z,90.63
2022-10-24T07:08:02.461Z,90.33
2022-10-24T07:09:02.327Z,90.43
2022-10-24T07:10:01.962Z,90.53
2022-10-24T07:11:02.300Z,90.83
2022-10-24T07:12:02.243Z,90.63
2022-10-24T07:13:02.765Z,90.43
2022-10-24T07:14:05.643Z,90.03
2022-10-24T07:15:02.417Z,90.53
2022-10-24T07:16:02.382Z,90.73
2022-10-24T07:17:02.767Z,90.43
2022-10-24T07:18:03.177Z,90.12
2022-10-24T07:19:03.128Z,90.33
2022-10-24T07:20:02.916Z,90.53
2022-10-24T07:21:02.954Z,90.73
2022-10-24T07:22:02.409Z,90.33
2022-10-24T07:23:02.668Z,89.58
2022-10-24T07:24:02.575Z,89.58
2022-10-24T07:25:02.694Z,89.98
2022-10-24T07:26:02.600Z,88.87
2022-10-24T07:27:02.746Z,89.17
2022-10-24T07:28:02.536Z,89.78
2022-10-24T07:30:05.592Z,89.98
2022-10-24T07:31:02.694Z,89.98
2022-10-24T07:32:02.152Z,88.26
2022-10-24T07:33:02.774Z,88.37
2022-10-24T07:34:02.598Z,89.48
2022-10-24T07:35:02.634Z,89.88
2022-10-24T07:36:02.810Z,89.98
2022-10-24T07:37:02.471Z,90.19
2022-10-24T07:38:02.718Z,89.37
2022-10-24T07:39:02.708Z,89.68
2022-10-24T07:40:02.664Z,89.48
2022-10-24T07:41:02.586Z,89.17
2022-10-24T07:42:02.590Z,89.37
2022-10-24T07:43:02.864Z,88.97
2022-10-24T07:44:02.713Z,89.07
2022-10-24T07:45:02.377Z,87.36
2022-10-24T07:46:02.325Z,87.86
2022-10-24T07:47:02.971Z,87.36
2022-10-24T07:48:03.189Z,85.94
2022-10-24T07:49:02.738Z,86.95
2022-10-24T07:50:03.380Z,87.72
2022-10-24T07:51:03.139Z,87.01
2022-10-24T07:52:02.494Z,88.02
2022-10-24T07:53:02.509Z,88.23
2022-10-24T07:54:02.675Z,88.43
2022-10-24T07:55:02.168Z,88.43
2022-10-24T07:56:02.282Z,88.18
2022-10-24T07:57:03.087Z,88.08
2022-10-24T07:58:03.258Z,88.39
2022-10-24T07:59:08.987Z,88.08
2022-10-24T08:00:03.306Z,88.79
2022-10-24T08:01:02.708Z,89.09
2022-10-24T08:02:03.295Z,87.38
2022-10-24T08:03:03.292Z,87.27
2022-10-24T08:04:03.457Z,86.97
2022-10-24T08:05:03.106Z,86.57
2022-10-24T08:06:03.043Z,86.07
2022-10-24T08:07:02.827Z,86.16
2022-10-24T08:08:24.715Z,86.67
2022-10-24T08:09:03.063Z,85.96
2022-10-24T08:10:02.672Z,85.76
2022-10-24T08:11:02.748Z,86.07
2022-10-24T08:12:03.007Z,85.46
2022-10-24T08:13:03.283Z,85.05
2022-10-24T08:14:03.143Z,83.74
2022-10-24T08:15:03.484Z,84.25
2022-10-24T08:16:02.970Z,84.01
2022-10-24T08:17:03.098Z,84.51
2022-10-24T08:18:03.120Z,84.91
2022-10-24T08:19:02.999Z,84.51
2022-10-24T08:20:02.623Z,84.81
2022-10-24T08:21:02.929Z,84.71
2022-10-24T08:22:03.023Z,84.81
2022-10-24T08:23:03.063Z,84.91
2022-10-24T08:24:02.886Z,84.41
2022-10-24T08:25:03.344Z,85.42
2022-10-24T08:26:03.452Z,85.42
2022-10-24T08:27:02.985Z,83.60
2022-10-24T08:28:05.331Z,84.51
2022-10-24T08:29:02.786Z,84.81
2022-10-24T08:30:02.491Z,84.41
2022-10-24T08:31:03.074Z,84.11
2022-10-24T08:32:03.281Z,84.61
2022-10-24T08:33:03.192Z,83.10
2022-10-24T08:34:03.029Z,84.47
2022-10-24T08:35:03.229Z,84.67
2022-10-24T08:36:03.245Z,85.68
2022-10-24T08:37:02.502Z,84.37
2022-10-24T08:38:02.774Z,83.66
2022-10-24T08:39:02.809Z,84.17
2022-10-24T08:40:02.756Z,84.57
2022-10-24T08:41:02.908Z,84.47
2022-10-24T08:42:03.406Z,83.66
2022-10-24T08:43:03.304Z,84.37
2022-10-24T08:44:03.306Z,83.97
2022-10-24T08:45:03.518Z,84.27
2022-10-24T08:46:03.027Z,83.76
2022-10-24T08:47:03.537Z,82.76
2022-10-24T08:48:03.253Z,83.56
2022-10-24T08:49:03.245Z,83.87
2022-10-24T08:50:03.237Z,83.46
2022-10-24T08:51:03.125Z,83.76
2022-10-24T08:52:02.852Z,84.33
2022-10-24T08:53:02.737Z,83.52
2022-10-24T08:54:02.933Z,84.53
2022-10-24T08:55:06.298Z,85.24
2022-10-24T08:56:02.389Z,83.32
2022-10-24T08:57:02.961Z,84.13
2022-10-24T08:58:02.718Z,84.33
2022-10-24T08:59:02.708Z,84.43
2022-10-24T09:00:02.551Z,83.52
2022-10-24T09:01:02.844Z,83.93
2022-10-24T09:02:04.554Z,82.51
2022-10-24T09:03:03.334Z,83.69
2022-10-24T09:04:03.242Z,82.58
2022-10-24T09:05:03.022Z,83.18
2022-10-24T09:06:02.995Z,83.59
2022-10-24T09:07:03.715Z,81.87
2022-10-24T09:08:03.666Z,82.58
2022-10-24T09:09:03.111Z,82.78
2022-10-24T09:10:03.226Z,82.98
2022-10-24T09:11:03.110Z,82.07
2022-10-24T09:12:02.549Z,81.07
2022-10-24T09:13:02.572Z,82.18
2022-10-24T09:14:03.171Z,82.07
2022-10-24T09:15:02.891Z,82.78
2022-10-24T09:16:02.704Z,82.48
2022-10-24T09:17:03.590Z,83.59
2022-10-24T09:18:03.179Z,83.48
2022-10-24T09:19:03.121Z,83.79
2022-10-24T09:20:03.488Z,84.35
2022-10-24T09:21:03.377Z,83.14
2022-10-24T09:22:03.067Z,81.53
2022-10-24T09:23:03.420Z,81.23
2022-10-24T09:24:03.540Z,81.13
2022-10-24T09:25:03.678Z,81.63
2022-10-24T09:26:03.569Z,81.79
2022-10-24T09:27:02.582Z,82.10
2022-10-24T09:28:02.637Z,81.39
2022-10-24T09:29:02.846Z,82.40
2022-10-24T09:30:02.691Z,82.50
2022-10-24T09:31:02.442Z,83.26
2022-10-24T09:32:02.516Z,83.37
2022-10-24T09:33:02.471Z,82.97
2022-10-24T09:34:02.515Z,80.15
2022-10-24T09:35:02.801Z,80.85
2022-10-24T09:36:02.678Z,81.05
2022-10-24T09:37:03.119Z,79.54
2022-10-24T09:38:02.696Z,80.55
2022-10-24T09:39:03.011Z,79.64
2022-10-24T09:40:03.048Z,79.64
2022-10-24T09:41:02.893Z,80.51
2022-10-24T09:42:02.722Z,81.01
2022-10-24T09:43:03.374Z,81.01
2022-10-24T09:44:02.888Z,80.71
2022-10-24T09:45:02.897Z,81.01
2022-10-24T09:46:02.810Z,79.10
2022-10-24T09:47:03.156Z,79.50
2022-10-24T09:48:03.273Z,79.81
2022-10-24T09:49:03.298Z,79.71
2022-10-24T09:50:03.125Z,78.10
2022-10-24T09:51:03.387Z,79.00
2022-10-24T09:52:03.066Z,78.60
2022-10-24T09:53:03.218Z,79.41
2022-10-24T09:54:03.339Z,79.50
2022-10-24T09:55:03.343Z,79.97
2022-10-24T09:56:03.357Z,79.47
2022-10-24T09:57:02.890Z,78.86
2022-10-24T09:58:02.868Z,79.57
2022-10-24T09:59:03.050Z,79.47
2022-10-24T10:00:03.162Z,79.77
2022-10-24T10:01:03.397Z,77.76
2022-10-24T10:02:03.488Z,77.16
2022-10-24T10:03:03.186Z,76.82
2022-10-24T10:04:08.377Z,77.02
2022-10-24T10:05:03.233Z,77.42
2022-10-24T10:06:03.035Z,76.92
2022-10-24T10:07:02.316Z,78.42
2022-10-24T10:08:02.446Z,76.89
2022-10-24T10:09:02.480Z,77.69
2022-10-24T10:10:02.303Z,76.68
2022-10-24T10:11:02.372Z,75.38
2022-10-24T10:12:03.370Z,75.08
2022-10-24T10:13:02.799Z,75.74
2022-10-24T10:14:02.466Z,75.84
2022-10-24T10:15:02.609Z,75.45
2022-10-24T10:16:02.743Z,75.34
2022-10-24T10:17:02.728Z,74.74
2022-10-24T10:18:02.830Z,75.34
2022-10-24T10:19:02.994Z,76.15
2022-10-24T10:20:03.104Z,75.74
2022-10-24T10:21:02.927Z,75.74
2022-10-24T10:22:02.994Z,75.74
2022-10-24T10:23:03.462Z,74.44
2022-10-24T10:24:03.354Z,73.24
2022-10-24T10:25:03.374Z,74.84
2022-10-24T10:26:03.172Z,75.74
2022-10-24T10:27:02.312Z,74.01
2022-10-24T10:28:03.159Z,73.50
2022-10-24T10:29:02.208Z,74.90
2022-10-24T10:30:02.294Z,75.01
2022-10-24T10:31:02.370Z,73.70
2022-10-24T10:32:02.928Z,70.39
2022-10-24T10:33:03.396Z,69.99
2022-10-24T10:34:03.072Z,71.39
2022-10-24T10:35:03.493Z,69.79
2022-10-24T10:36:02.834Z,68.99
2022-10-24T10:37:02.567Z,69.29
2022-10-24T10:38:02.861Z,69.59
2022-10-24T10:39:02.303Z,71.56
2022-10-24T10:40:02.666Z,69.66
2022-10-24T10:41:02.391Z,70.96
2022-10-24T10:42:02.679Z,69.06
2022-10-24T10:43:03.045Z,68.46
2022-10-24T10:44:02.890Z,69.96
2022-10-24T10:45:02.943Z,69.23
2022-10-24T10:46:02.463Z,69.46
2022-10-24T10:47:03.131Z,68.05
2022-10-24T10:48:03.257Z,68.46
2022-10-24T10:49:03.184Z,68.26
2022-10-24T10:50:03.196Z,69.26
2022-10-24T10:51:07.306Z,69.06
2022-10-24T10:52:02.741Z,70.36
2022-10-24T10:53:02.690Z,69.62
2022-10-24T10:54:02.560Z,69.23
2022-10-24T10:55:02.759Z,69.93
2022-10-24T10:56:03.007Z,69.23
2022-10-24T10:57:02.815Z,71.23
2022-10-24T10:58:03.184Z,70.39
2022-10-24T10:59:03.233Z,69.89
2022-10-24T11:00:02.829Z,69.89
2022-10-24T11:01:03.021Z,69.19
2022-10-24T11:02:02.888Z,69.79
2022-10-24T11:03:02.370Z,70.50
2022-10-24T11:04:02.623Z,69.16
2022-10-24T11:05:03.001Z,68.89
2022-10-24T11:06:02.906Z,70.36
2022-10-24T11:07:02.286Z,69.16
2022-10-24T11:08:02.051Z,68.55
2022-10-24T11:09:02.455Z,68.36
2022-10-24T11:10:02.304Z,69.06
2022-10-24T11:11:01.995Z,68.62
2022-10-24T11:12:02.556Z,67.82
2022-10-24T11:13:02.592Z,68.13
2022-10-24T11:14:02.564Z,69.12
2022-10-24T11:15:02.535Z,69.32
2022-10-24T11:16:02.331Z,67.93
2022-10-24T11:17:02.684Z,67.72
2022-10-24T11:18:02.957Z,68.32
2022-10-24T11:19:02.769Z,68.62
2022-10-24T11:20:03.135Z,67.63
2022-10-24T11:21:02.748Z,68.32
2022-10-24T11:22:02.556Z,67.32
2022-10-24T11:23:02.336Z,67.32
2022-10-24T11:24:02.604Z,69.53
2022-10-24T11:25:02.371Z,69.43
2022-10-24T11:26:02.268Z,66.02
2022-10-24T11:27:03.000Z,67.02
2022-10-24T11:28:03.106Z,66.63
2022-10-24T11:29:02.574Z,65.75
2022-10-24T11:30:03.159Z,66.46
2022-10-24T11:31:02.811Z,68.16
2022-10-24T11:33:03.166Z,67.89
2022-10-24T11:34:02.849Z,67.49
2022-10-24T11:35:02.865Z,67.89
2022-10-24T11:36:03.133Z,67.39
2022-10-24T11:37:02.335Z,68.59
2022-10-24T11:38:01.991Z,69.59
2022-10-24T11:39:02.386Z,67.99
2022-10-24T11:40:02.154Z,67.92
2022-10-24T11:41:02.340Z,69.42
2022-10-24T11:42:02.993Z,68.02
2022-10-24T11:43:02.910Z,68.42
2022-10-24T11:44:03.053Z,67.32
2022-10-24T11:45:03.222Z,68.12
2022-10-24T11:46:02.856Z,68.22
2022-10-24T11:47:06.360Z,67.65
2022-10-24T11:48:02.193Z,69.06
2022-10-24T11:49:02.527Z,67.55
2022-10-24T11:50:02.639Z,68.05
2022-10-24T11:51:02.546Z,67.05
2022-10-24T11:52:02.453Z,68.55
2022-10-24T11:53:02.377Z,67.55
2022-10-24T11:54:01.872Z,66.28
2022-10-24T11:55:01.945Z,67.45
2022-10-24T11:56:02.358Z,67.88
2022-10-24T11:57:02.917Z,68.89
2022-10-24T11:58:02.486Z,68.49
2022-10-24T11:59:02.963Z,68.79
2022-10-24T12:00:02.781Z,68.79
2022-10-24T12:01:02.718Z,67.58
2022-10-24T12:02:01.621Z,67.58
2022-10-24T12:03:01.953Z,67.69
2022-10-24T12:04:02.037Z,68.39
2022-10-24T12:05:02.100Z,68.69
2022-10-24T12:06:02.297Z,68.69
2022-10-24T12:07:02.230Z,69.09
2022-10-24T12:08:02.242Z,67.29
2022-10-24T12:09:02.262Z,67.79
2022-10-24T12:10:02.497Z,67.79
2022-10-24T12:11:02.363Z,68.35
2022-10-24T12:12:02.887Z,67.55
2022-10-24T12:13:02.372Z,68.35
2022-10-24T12:15:02.303Z,66.85
2022-10-24T12:16:02.361Z,66.75
2022-10-24T12:17:02.151Z,68.55
2022-10-24T12:18:02.417Z,67.35
2022-10-24T12:19:02.929Z,67.65
2022-10-24T12:20:02.701Z,68.85
2022-10-24T12:21:02.683Z,68.46
2022-10-24T12:22:02.782Z,68.35
2022-10-24T12:23:01.977Z,68.46
2022-10-24T12:24:02.412Z,68.26
2022-10-24T12:25:02.260Z,67.45
2022-10-24T12:26:02.117Z,68.35
2022-10-24T12:27:02.250Z,68.15
2022-10-24T12:28:02.004Z,67.96
2022-10-24T12:29:02.134Z,67.65
2022-10-24T12:30:01.957Z,69.35
2022-10-24T12:31:01.695Z,68.65
2022-10-24T12:32:01.809Z,68.35
2022-10-24T12:33:02.325Z,68.55
2022-10-24T12:34:02.390Z,68.15
2022-10-24T12:35:28.897Z,67.99
2022-10-24T12:36:02.314Z,68.59
2022-10-24T12:37:02.380Z,68.79
2022-10-24T12:38:01.680Z,68.49
2022-10-24T12:39:02.177Z,68.19
2022-10-24T12:40:01.805Z,67.99
2022-10-24T12:41:02.150Z,69.09
2022-10-24T12:42:02.093Z,68.79
2022-10-24T12:43:02.772Z,68.89
2022-10-24T12:44:02.764Z,69.09
2022-10-24T12:45:02.738Z,70.09
2022-10-24T12:46:04.017Z,70.39
2022-10-24T12:47:02.500Z,70.69
2022-10-24T12:48:02.097Z,69.79
2022-10-24T12:49:02.046Z,69.89
2022-10-24T12:50:02.020Z,69.49
2022-10-24T12:51:02.278Z,69.79
2022-10-24T12:52:01.809Z,69.29
2022-10-24T12:53:03.023Z,69.62
2022-10-24T12:54:03.100Z,68.62
2022-10-24T12:55:03.105Z,69.82
2022-10-24T12:56:03.079Z,69.32
2022-10-24T12:57:02.959Z,69.53
2022-10-24T12:58:02.485Z,69.73